Terminal Aerodrome Forecast
Issued by NWS Lake Charles, LA

Home | Current Version | Previous Version | Text Only | Print | Product List | Glossary On
Versions: 1 2 3 4 5 6 7 8 9 10 11 12 13 14 15
823
FTUS44 KLCH 250520
TAFLCH
TAF
KLCH 250520Z 2506/2606 VRB03KT P6SM SCT250
     FM251200 VRB04KT P6SM VCSH SCT025
     FM251800 15005KT P6SM VCTS SCT025CB=

USA.gov is the U.S. government's official web portal to all federal, state and local government web resources and services.